Time;durP1;ratioP1;P1;durP2;ratioP2;P2;SDS_P1;SDS_P2;PMS_P1;PMS_P2;Temp;Humidity;BMP_temperature;BMP_pressure;BME280_temperature;BME280_humidity;BME280_pressure;Samples;Min_cycle;Max_cycle;Signal;HPM_P1;HPM_P2
2022/02/20 00:00:35;;;;;;;0.90;0.57;;;6.10;74.60;6.00;100008.00;;;;4934487;28;92758;-64
2022/02/20 00:03:01;;;;;;;0.57;0.57;;;6.20;76.40;5.90;99986.00;;;;4930259;28;108356;-64
2022/02/20 00:05:26;;;;;;;0.50;0.50;;;6.10;78.20;5.80;99978.00;;;;4914342;28;124824;-64
2022/02/20 00:07:52;;;;;;;2.97;0.53;;;6.50;79.80;5.80;99993.00;;;;4926684;28;122438;-65
2022/02/20 00:10:18;;;;;;;2.23;0.50;;;6.00;80.20;5.80;99992.00;;;;4934961;28;93016;-64
2022/02/20 00:12:43;;;;;;;0.63;0.50;;;5.90;80.20;5.80;99995.00;;;;4932331;28;109824;-64
2022/02/20 00:15:09;;;;;;;0.60;0.50;;;5.90;79.20;5.80;99986.00;;;;4921391;28;123109;-65
2022/02/20 00:17:48;;;;;;;3.17;0.60;;;6.30;79.40;5.90;99980.00;;;;4915143;28;123263;-65
2022/02/20 00:20:14;;;;;;;0.90;0.50;;;6.00;80.10;5.80;99986.00;;;;4916399;28;93104;-64
2022/02/20 00:22:40;;;;;;;0.70;0.70;;;5.90;82.20;5.60;99972.00;;;;4920005;28;109863;-64
2022/02/20 00:25:06;;;;;;;0.37;0.37;;;5.90;83.70;5.50;99991.00;;;;4916989;28;122739;-65
2022/02/20 00:27:32;;;;;;;2.20;0.73;;;5.70;85.50;5.40;99969.00;;;;4914332;28;116523;-64
2022/02/20 00:29:58;;;;;;;2.73;0.73;;;5.60;87.10;5.30;99949.00;;;;4914482;28;93143;-64
2022/02/20 00:32:25;;;;;;;3.30;0.63;;;5.50;90.40;5.20;99969.00;;;;4915985;28;91969;-64
2022/02/20 00:34:50;;;;;;;4.77;0.60;;;5.30;92.50;5.10;99959.00;;;;4927946;28;93213;-64
2022/02/20 00:37:16;;;;;;;3.87;0.73;;;5.30;94.30;5.00;99967.00;;;;4934293;28;93970;-64
2022/02/20 00:39:48;;;;;;;2.10;0.30;;;5.70;96.50;4.80;99954.00;;;;4932899;28;110676;-65
2022/02/20 00:42:13;;;;;;;0.23;0.23;;;5.00;99.10;4.70;99961.00;;;;4926581;28;109282;-63
2022/02/20 00:44:39;;;;;;;0.40;0.40;;;5.00;99.90;4.60;99967.00;;;;4915324;28;93316;-63
2022/02/20 00:47:05;;;;;;;1.73;0.67;;;4.80;99.90;4.40;99957.00;;;;4914809;28;93227;-63
2022/02/20 00:49:31;;;;;;;1.93;0.50;;;5.10;99.90;4.30;99945.00;;;;4915646;28;92886;-63
2022/02/20 00:51:57;;;;;;;1.23;0.43;;;4.60;99.90;4.20;99957.00;;;;4913908;28;103978;-64
2022/02/20 00:54:23;;;;;;;1.40;0.73;;;4.40;99.90;4.20;99931.00;;;;4928539;28;100332;-64
2022/02/20 00:56:48;;;;;;;2.17;0.80;;;4.30;99.90;4.10;99938.00;;;;4933236;28;122490;-63
2022/02/20 00:59:14;;;;;;;1.20;0.80;;;4.30;99.90;4.00;99926.00;;;;4933127;28;110150;-62
2022/02/20 01:01:41;;;;;;;0.67;0.60;;;4.30;99.90;4.00;99927.00;;;;4933596;28;105427;-62
2022/02/20 01:04:08;;;;;;;5.40;0.77;;;4.20;99.90;3.90;99916.00;;;;4932943;28;95309;-63
2022/02/20 01:06:33;;;;;;;0.70;0.47;;;4.20;99.90;3.90;99917.00;;;;4934253;28;94541;-63
2022/02/20 01:08:59;;;;;;;1.03;0.70;;;4.10;99.90;3.80;99906.00;;;;4922876;28;93080;-64
2022/02/20 01:11:25;;;;;;;1.63;0.63;;;4.70;99.90;3.70;99903.00;;;;4932544;28;97246;-64
2022/02/20 01:13:51;;;;;;;3.97;1.07;;;3.90;99.90;3.70;99900.00;;;;4931886;28;122540;-64
2022/02/20 01:16:17;;;;;;;0.30;0.23;;;3.90;99.90;3.60;99882.00;;;;4933654;28;93137;-67
2022/02/20 01:18:42;;;;;;;0.90;0.40;;;3.80;99.90;3.50;99883.00;;;;4924414;28;92874;-66
2022/02/20 01:21:08;;;;;;;0.57;0.50;;;3.70;99.90;3.50;99865.00;;;;4928428;28;99774;-66
2022/02/20 01:23:34;;;;;;;1.23;0.77;;;3.80;99.90;3.40;99851.00;;;;4919943;28;123220;-67
2022/02/20 01:26:00;;;;;;;3.53;0.80;;;3.60;99.90;3.40;99850.00;;;;4930162;28;121911;-67
2022/02/20 01:28:25;;;;;;;0.97;0.87;;;3.50;99.90;3.40;99829.00;;;;4931637;28;93798;-67
2022/02/20 01:30:51;;;;;;;0.60;0.60;;;3.50;99.90;3.30;99836.00;;;;4933358;28;108341;-67
2022/02/20 01:33:17;;;;;;;1.00;0.70;;;3.50;99.90;3.30;99828.00;;;;4933619;28;94058;-67
2022/02/20 01:35:44;;;;;;;2.80;0.90;;;4.30;99.90;3.30;99828.00;;;;4932212;28;112385;-66
2022/02/20 01:38:10;;;;;;;2.93;1.33;;;3.50;99.90;3.30;99813.00;;;;4932928;28;92831;-67
2022/02/20 01:40:36;;;;;;;0.77;0.50;;;3.50;99.90;3.30;99802.00;;;;4932625;28;97267;-68
2022/02/20 01:43:02;;;;;;;0.97;0.87;;;3.80;99.90;3.30;99795.00;;;;4928753;28;115378;-68
2022/02/20 01:45:28;;;;;;;2.40;0.60;;;3.50;99.90;3.30;99805.00;;;;4915069;28;120559;-64
2022/02/20 01:47:54;;;;;;;0.60;0.60;;;3.50;99.90;3.30;99792.00;;;;4929634;28;109358;-67
2022/02/20 01:50:20;;;;;;;2.73;0.50;;;4.10;99.90;3.30;99795.00;;;;4913422;28;108863;-65
2022/02/20 01:52:46;;;;;;;0.60;0.60;;;3.50;99.90;3.30;99784.00;;;;4913294;28;94306;-68
2022/02/20 01:55:14;;;;;;;0.93;0.77;;;3.60;99.90;3.30;99787.00;;;;4912630;28;123173;-71
2022/02/20 01:57:42;;;;;;;0.83;0.40;;;3.40;99.90;3.20;99791.00;;;;4933042;28;92806;-65
2022/02/20 02:00:13;;;;;;;1.90;0.50;;;3.80;99.90;3.20;99777.00;;;;4933532;28;92712;-65
2022/02/20 02:02:38;;;;;;;1.53;0.90;;;3.40;99.90;3.10;99773.00;;;;4922836;28;93176;-65
2022/02/20 02:05:05;;;;;;;0.67;0.50;;;3.40;99.90;3.10;99774.00;;;;4914444;28;108578;-65
2022/02/20 02:07:31;;;;;;;3.63;0.70;;;3.30;99.90;3.00;99770.00;;;;4913571;28;92989;-64
2022/02/20 02:09:57;;;;;;;3.60;0.70;;;3.20;99.90;3.00;99757.00;;;;4914855;28;92223;-65
2022/02/20 02:12:23;;;;;;;3.93;0.90;;;3.20;99.90;3.00;99746.00;;;;4911976;28;95419;-64
2022/02/20 02:15:07;;;;;;;0.47;0.40;;;3.20;99.90;2.90;99744.00;;;;4914820;28;93588;-65
2022/02/20 02:17:33;;;;;;;0.97;0.77;;;3.20;99.90;2.90;99742.00;;;;4913851;28;93542;-64
2022/02/20 02:19:59;;;;;;;0.93;0.50;;;3.20;99.90;3.00;99741.00;;;;4928407;28;92980;-63
2022/02/20 02:22:27;;;;;;;2.37;0.97;;;3.20;99.90;2.90;99730.00;;;;4914199;28;123258;-65
2022/02/20 02:24:56;;;;;;;0.60;0.60;;;3.10;99.90;2.90;99728.00;;;;4926550;28;114424;-64
2022/02/20 02:27:21;;;;;;;2.50;0.70;;;3.60;99.90;2.90;99727.00;;;;4932213;28;102368;-65
2022/02/20 02:29:48;;;;;;;2.20;0.80;;;3.10;99.90;2.90;99719.00;;;;4931774;28;92750;-64
2022/02/20 02:32:15;;;;;;;0.83;0.40;;;3.10;99.90;2.90;99723.00;;;;4933800;28;116288;-64
2022/02/20 02:34:46;;;;;;;2.60;1.03;;;3.10;99.90;2.90;99710.00;;;;4921188;28;111362;-65
2022/02/20 02:37:12;;;;;;;0.37;0.37;;;3.10;99.90;2.90;99707.00;;;;4915502;28;92818;-64
2022/02/20 02:39:40;;;;;;;1.80;1.00;;;3.20;99.90;2.90;99709.00;;;;4914827;28;92743;-64
2022/02/20 02:42:08;;;;;;;0.57;0.57;;;3.10;99.90;2.90;99695.00;;;;4924254;28;95275;-64
2022/02/20 02:44:34;;;;;;;1.23;0.40;;;3.10;99.90;2.90;99691.00;;;;4931979;28;114139;-65
2022/02/20 02:47:00;;;;;;;0.50;0.43;;;3.10;99.90;2.90;99684.00;;;;4932642;28;97494;-64
2022/02/20 02:49:26;;;;;;;0.70;0.60;;;3.10;99.90;2.90;99669.00;;;;4931593;28;110124;-64
2022/02/20 02:51:51;;;;;;;6.80;1.00;;;3.10;99.90;2.90;99669.00;;;;4930944;28;122393;-64
2022/02/20 02:54:18;;;;;;;1.40;0.77;;;3.10;99.90;2.90;99670.00;;;;4933183;28;106253;-65
2022/02/20 02:56:45;;;;;;;0.83;0.73;;;3.60;99.90;2.90;99666.00;;;;4946707;28;108134;-66
2022/02/20 02:59:11;;;;;;;1.30;0.87;;;3.80;99.90;2.90;99657.00;;;;4932111;28;91877;-65
2022/02/20 03:01:37;;;;;;;2.27;0.53;;;3.10;99.90;3.00;99653.00;;;;4927556;28;93373;-65
2022/02/20 03:04:02;;;;;;;1.43;0.90;;;3.10;99.90;3.00;99656.00;;;;4914791;28;122835;-64
2022/02/20 03:06:28;;;;;;;4.70;1.17;;;3.20;99.90;3.00;99647.00;;;;4914554;28;110590;-65
2022/02/20 03:08:54;;;;;;;1.70;0.80;;;3.20;99.90;3.00;99642.00;;;;4916267;28;103396;-65
2022/02/20 03:11:20;;;;;;;0.97;0.77;;;3.20;99.90;3.10;99640.00;;;;4930881;28;122092;-67
2022/02/20 03:13:46;;;;;;;1.57;0.80;;;3.30;99.90;3.10;99633.00;;;;4931060;28;119643;-65
2022/02/20 03:16:12;;;;;;;0.73;0.70;;;3.30;99.90;3.20;99629.00;;;;4931689;28;110027;-64
2022/02/20 03:18:37;;;;;;;2.13;0.80;;;3.40;99.90;3.20;99616.00;;;;4927857;28;92703;-65
2022/02/20 03:21:06;;;;;;;2.50;0.90;;;4.10;99.90;3.20;99616.00;;;;4924235;28;94046;-64
2022/02/20 03:23:33;;;;;;;0.40;0.40;;;3.30;99.90;3.20;99617.00;;;;4932471;28;93102;-63
2022/02/20 03:25:59;;;;;;;0.60;0.60;;;3.40;99.90;3.20;99615.00;;;;4932090;28;93052;-63
2022/02/20 03:28:25;;;;;;;0.67;0.50;;;3.40;99.90;3.20;99605.00;;;;4932146;28;95519;-63
2022/02/20 03:30:51;;;;;;;0.60;0.50;;;3.40;99.90;3.30;99614.00;;;;4929642;28;100271;-64
2022/02/20 03:33:17;;;;;;;0.53;0.43;;;3.40;99.90;3.30;99607.00;;;;4930595;28;106387;-65
2022/02/20 03:35:43;;;;;;;1.63;0.60;;;3.60;99.90;3.40;99615.00;;;;4931350;28;99009;-63
2022/02/20 03:38:10;;;;;;;1.43;0.50;;;3.50;99.90;3.40;99613.00;;;;4926747;28;92876;-64
2022/02/20 03:40:36;;;;;;;0.80;0.57;;;3.60;99.90;3.50;99609.00;;;;4911541;28;122195;-64
2022/02/20 03:43:02;;;;;;;0.50;0.43;;;4.20;99.90;3.50;99593.00;;;;4911799;28;121926;-64
2022/02/20 03:45:30;;;;;;;0.33;0.33;;;3.60;99.90;3.50;99587.00;;;;4913009;28;93015;-65
2022/02/20 03:47:56;;;;;;;0.20;0.20;;;3.70;99.90;3.50;99603.00;;;;4925662;28;103449;-64
2022/02/20 03:50:22;;;;;;;0.53;0.43;;;4.10;99.90;3.60;99591.00;;;;4932723;28;112007;-64
2022/02/20 03:52:49;;;;;;;0.93;0.30;;;3.70;99.90;3.50;99593.00;;;;4931807;28;93089;-65
2022/02/20 03:55:15;;;;;;;1.17;0.63;;;3.70;99.90;3.50;99590.00;;;;4931208;28;93829;-64
2022/02/20 03:57:41;;;;;;;0.63;0.57;;;3.70;99.90;3.50;99582.00;;;;4932526;28;92975;-64
2022/02/20 04:00:18;;;;;;;0.53;0.40;;;3.60;99.90;3.50;99580.00;;;;4931198;28;110828;-64
2022/02/20 04:02:44;;;;;;;0.83;0.60;;;3.70;99.90;3.50;99579.00;;;;4932153;28;92966;-65
2022/02/20 04:05:13;;;;;;;0.27;0.27;;;3.80;99.90;3.50;99580.00;;;;4922988;28;111371;-65
2022/02/20 04:07:39;;;;;;;0.57;0.40;;;3.70;99.90;3.50;99582.00;;;;4915417;28;100738;-66
2022/02/20 04:10:08;;;;;;;0.80;0.43;;;3.70;99.90;3.50;99563.00;;;;4914575;28;111795;-67
2022/02/20 04:12:34;;;;;;;0.40;0.40;;;4.30;99.90;3.60;99578.00;;;;4913565;28;92105;-65
2022/02/20 04:15:03;;;;;;;0.40;0.40;;;3.70;99.90;3.60;99565.00;;;;4929577;28;92750;-65
2022/02/20 04:17:29;;;;;;;0.40;0.40;;;3.70;99.90;3.60;99561.00;;;;4935722;28;92828;-64
2022/02/20 04:19:54;;;;;;;0.97;0.40;;;3.60;99.90;3.60;99572.00;;;;4934028;28;124695;-64
2022/02/20 04:22:21;;;;;;;1.50;0.37;;;4.20;99.90;3.60;99566.00;;;;4934346;28;107412;-65
2022/02/20 04:24:47;;;;;;;2.37;0.57;;;3.70;99.90;3.60;99560.00;;;;4929145;28;92811;-66
2022/02/20 04:27:13;;;;;;;0.93;0.40;;;3.70;99.90;3.60;99556.00;;;;4915726;28;92895;-64
2022/02/20 04:29:39;;;;;;;0.40;0.40;;;3.80;99.90;3.60;99563.00;;;;4916267;28;93555;-65
2022/02/20 04:32:05;;;;;;;1.80;0.50;;;3.80;99.90;3.70;99572.00;;;;4919283;28;110454;-64
2022/02/20 04:34:31;;;;;;;1.60;0.50;;;3.80;99.90;3.70;99566.00;;;;4935413;28;92818;-64
2022/02/20 04:36:57;;;;;;;0.50;0.40;;;3.80;99.90;3.70;99566.00;;;;4926488;28;107217;-65
2022/02/20 04:39:23;;;;;;;1.40;0.63;;;3.80;99.90;3.80;99582.00;;;;4913913;28;122384;-64
2022/02/20 04:41:49;;;;;;;1.67;0.90;;;3.90;99.90;3.80;99576.00;;;;4914705;28;107318;-65
2022/02/20 04:44:15;;;;;;;6.87;0.57;;;4.00;99.90;3.80;99594.00;;;;4927175;28;110825;-64
2022/02/20 04:46:40;;;;;;;2.60;0.37;;;4.00;99.90;3.90;99605.00;;;;4934679;28;92879;-65
2022/02/20 04:49:08;;;;;;;0.87;0.27;;;4.00;99.90;3.90;99594.00;;;;4933102;28;117001;-65
2022/02/20 04:51:35;;;;;;;2.93;0.93;;;3.90;99.90;3.90;99599.00;;;;4933789;28;114184;-64
2022/02/20 04:54:02;;;;;;;0.53;0.47;;;4.00;99.90;3.90;99607.00;;;;4933521;28;104669;-66
2022/02/20 04:56:29;;;;;;;1.67;0.50;;;4.10;99.90;3.90;99604.00;;;;4934223;28;95160;-64
2022/02/20 04:58:55;;;;;;;1.30;0.87;;;4.10;99.90;3.90;99601.00;;;;4932921;28;115497;-64
2022/02/20 05:01:22;;;;;;;0.53;0.53;;;4.00;99.90;4.00;99608.00;;;;4916672;28;108169;-64
2022/02/20 05:03:48;;;;;;;0.57;0.53;;;4.10;99.90;4.00;99620.00;;;;4930480;28;93040;-65
2022/02/20 05:06:14;;;;;;;1.23;0.70;;;4.20;99.90;4.00;99618.00;;;;4914198;28;100011;-66
2022/02/20 05:08:40;;;;;;;1.03;0.83;;;4.20;99.90;4.00;99615.00;;;;4913643;28;112116;-65
2022/02/20 05:11:05;;;;;;;0.77;0.53;;;4.20;99.90;4.10;99622.00;;;;4931432;28;123032;-65
2022/02/20 05:13:31;;;;;;;3.47;0.90;;;4.20;99.90;4.10;99624.00;;;;4933292;28;109087;-64
2022/02/20 05:15:58;;;;;;;1.73;1.00;;;4.20;99.90;4.10;99619.00;;;;4933344;28;94932;-65
2022/02/20 05:18:24;;;;;;;1.53;0.90;;;4.20;99.90;4.10;99621.00;;;;4932112;28;93426;-66
2022/02/20 05:20:54;;;;;;;1.10;0.80;;;5.50;99.90;4.10;99626.00;;;;4932851;28;122303;-65
2022/02/20 05:23:21;;;;;;;1.13;0.60;;;4.30;99.90;4.10;99624.00;;;;4933904;28;92876;-66
2022/02/20 05:25:48;;;;;;;0.60;0.50;;;4.30;99.90;4.10;99624.00;;;;4929676;28;92181;-66
2022/02/20 05:28:15;;;;;;;1.87;0.87;;;4.30;99.90;4.20;99627.00;;;;4922535;28;115817;-64
2022/02/20 05:30:41;;;;;;;0.70;0.40;;;4.20;99.90;4.20;99640.00;;;;4934206;28;93166;-65
2022/02/20 05:33:07;;;;;;;2.63;0.80;;;4.30;99.90;4.20;99631.00;;;;4932971;28;94032;-66
2022/02/20 05:35:32;;;;;;;1.60;1.00;;;4.70;99.90;4.20;99643.00;;;;4933237;28;109270;-65
2022/02/20 05:38:17;;;;;;;3.10;0.83;;;4.30;99.90;4.20;99641.00;;;;4930369;28;118501;-64
2022/02/20 05:40:43;;;;;;;2.30;0.80;;;4.40;99.90;4.30;99640.00;;;;4930677;28;92806;-65
2022/02/20 05:43:10;;;;;;;3.17;0.80;;;4.40;99.90;4.30;99642.00;;;;4934064;28;92833;-65
2022/02/20 05:45:35;;;;;;;2.13;1.27;;;4.40;99.90;4.30;99648.00;;;;4933310;28;109009;-65
2022/02/20 05:48:03;;;;;;;2.73;1.40;;;4.40;99.90;4.30;99648.00;;;;4931187;28;113432;-64
2022/02/20 05:50:29;;;;;;;1.40;0.90;;;4.50;99.90;4.40;99650.00;;;;4914961;28;93778;-65
2022/02/20 05:52:55;;;;;;;2.57;1.03;;;4.60;99.90;4.40;99647.00;;;;4931404;28;92805;-66
2022/02/20 05:55:22;;;;;;;0.93;0.80;;;4.50;99.90;4.40;99665.00;;;;4932906;28;93104;-65
2022/02/20 05:57:53;;;;;;;2.47;0.90;;;4.50;99.90;4.40;99670.00;;;;4930462;28;94900;-65
2022/02/20 06:00:24;;;;;;;3.60;0.77;;;4.50;99.90;4.40;99675.00;;;;4933347;28;94580;-66
2022/02/20 06:02:49;;;;;;;1.53;0.90;;;4.80;99.90;4.40;99679.00;;;;4932458;28;101590;-66
2022/02/20 06:05:15;;;;;;;0.50;0.50;;;4.60;99.90;4.50;99678.00;;;;4919792;28;101414;-65
2022/02/20 06:07:41;;;;;;;0.40;0.40;;;4.60;99.90;4.50;99692.00;;;;4914968;28;111687;-65
2022/02/20 06:10:08;;;;;;;1.00;0.87;;;4.60;99.90;4.50;99697.00;;;;4913700;28;93666;-65
2022/02/20 06:12:35;;;;;;;3.17;0.83;;;4.70;99.90;4.60;99700.00;;;;4912285;28;92837;-65
2022/02/20 06:15:01;;;;;;;0.60;0.60;;;4.70;99.90;4.60;99696.00;;;;4913163;28;102525;-67
2022/02/20 06:17:27;;;;;;;1.60;1.00;;;4.80;99.90;4.60;99705.00;;;;4911438;28;93439;-66
2022/02/20 06:19:53;;;;;;;2.37;1.10;;;4.80;99.90;4.70;99701.00;;;;4915528;28;121723;-66
2022/02/20 06:22:18;;;;;;;0.80;0.70;;;4.80;99.90;4.70;99711.00;;;;4910511;28;109534;-66
2022/02/20 06:24:44;;;;;;;3.80;1.10;;;4.80;99.90;4.70;99717.00;;;;4911951;28;107156;-66
2022/02/20 06:27:11;;;;;;;4.23;1.23;;;4.80;99.90;4.80;99720.00;;;;4912679;28;96924;-66
2022/02/20 06:29:36;;;;;;;2.00;1.23;;;4.90;99.90;4.80;99716.00;;;;4917002;28;93570;-66
2022/02/20 06:32:03;;;;;;;1.43;1.03;;;3.50;99.90;4.90;99729.00;;;;4915027;28;103965;-66
2022/02/20 06:34:29;;;;;;;1.83;1.00;;;5.00;99.90;4.90;99722.00;;;;4913430;28;92845;-66
2022/02/20 06:36:55;;;;;;;1.00;0.90;;;5.00;99.90;4.90;99723.00;;;;4910308;28;108767;-67
2022/02/20 06:39:28;;;;;;;1.48;1.13;;;5.60;99.90;4.90;99723.00;;;;4285846;28;10001222;-66
2022/02/20 06:41:53;;;;;;;2.37;0.97;;;5.00;99.90;5.00;99740.00;;;;4928508;28;107547;-66
2022/02/20 06:44:19;;;;;;;0.93;0.70;;;5.40;99.90;5.00;99738.00;;;;4928435;28;110600;-67
2022/02/20 06:46:45;;;;;;;1.37;0.80;;;5.10;99.90;5.10;99741.00;;;;4928346;28;108415;-67
2022/02/20 06:49:11;;;;;;;1.20;0.90;;;5.20;99.90;5.10;99754.00;;;;4920291;28;112713;-66
2022/02/20 06:51:37;;;;;;;2.83;1.00;;;5.80;99.90;5.10;99761.00;;;;4926775;28;123220;-66
2022/02/20 06:54:04;;;;;;;0.80;0.80;;;5.20;99.90;5.10;99766.00;;;;4925598;28;109254;-67
2022/02/20 06:56:33;;;;;;;1.53;0.97;;;5.30;99.90;5.20;99770.00;;;;4928898;28;92981;-66
2022/02/20 06:58:59;;;;;;;3.17;1.37;;;5.30;99.90;5.20;99772.00;;;;4927761;28;98340;-66
2022/02/20 07:01:24;;;;;;;1.23;0.90;;;5.30;99.90;5.30;99777.00;;;;4930088;28;93227;-67
2022/02/20 07:03:51;;;;;;;0.73;0.73;;;5.40;99.90;5.30;99782.00;;;;4926913;28;92535;-66
2022/02/20 07:06:17;;;;;;;2.13;1.43;;;5.50;99.90;5.40;99788.00;;;;4936851;28;93372;-65
2022/02/20 07:08:42;;;;;;;1.73;1.23;;;5.50;99.90;5.40;99791.00;;;;4934353;28;93945;-66
2022/02/20 07:11:08;;;;;;;1.93;1.23;;;6.00;99.90;5.40;99807.00;;;;4927757;28;93607;-67
2022/02/20 07:13:34;;;;;;;2.67;1.17;;;5.50;99.90;5.40;99800.00;;;;4935757;28;111907;-66
2022/02/20 07:16:00;;;;;;;1.90;1.07;;;5.50;99.90;5.40;99808.00;;;;4928531;28;105829;-66
2022/02/20 07:18:25;;;;;;;3.53;1.00;;;5.50;99.90;5.50;99818.00;;;;4924800;28;92796;-66
2022/02/20 07:20:51;;;;;;;0.97;0.87;;;5.70;99.90;5.50;99798.00;;;;4928435;28;103920;-66
2022/02/20 07:23:17;;;;;;;3.30;1.37;;;5.70;99.90;5.50;99805.00;;;;4923798;28;92887;-65
2022/02/20 07:25:43;;;;;;;6.60;1.63;;;5.70;99.90;5.60;99824.00;;;;4929350;28;92973;-65
2022/02/20 07:28:10;;;;;;;6.43;1.30;;;5.70;99.90;5.60;99831.00;;;;4927391;28;120215;-64
2022/02/20 07:30:35;;;;;;;0.70;0.70;;;5.70;99.90;5.60;99836.00;;;;4928635;28;93918;-65
2022/02/20 07:33:07;;;;;;;1.23;0.87;;;6.50;99.90;5.70;99836.00;;;;4921460;28;110974;-62
2022/02/20 07:35:34;;;;;;;1.10;1.00;;;5.80;99.90;5.70;99841.00;;;;4929242;28;94081;-65
2022/02/20 07:38:02;;;;;;;0.97;0.93;;;5.90;99.90;5.70;99839.00;;;;4929086;28;94294;-65
2022/02/20 07:40:28;;;;;;;3.90;1.23;;;6.20;99.90;5.80;99845.00;;;;4931735;28;93761;-64
2022/02/20 07:42:57;;;;;;;1.87;0.80;;;5.80;99.90;5.80;99847.00;;;;4932811;28;92749;-64
2022/02/20 07:45:24;;;;;;;1.37;0.90;;;5.90;99.90;5.80;99858.00;;;;4929716;28;95502;-64
2022/02/20 07:47:56;;;;;;;2.10;1.10;;;6.10;99.90;5.90;99864.00;;;;4929465;28;93207;-62
2022/02/20 07:50:28;;;;;;;2.50;0.80;;;5.90;99.90;5.90;99885.00;;;;4929945;28;93503;-62
2022/02/20 07:52:55;;;;;;;1.53;0.87;;;6.50;99.90;6.00;99866.00;;;;4931880;28;102269;-64
2022/02/20 07:55:21;;;;;;;1.23;0.87;;;6.70;99.90;6.00;99875.00;;;;4933445;28;93080;-63
2022/02/20 07:57:48;;;;;;;0.80;0.70;;;6.10;99.90;6.10;99874.00;;;;4930143;28;93166;-63
2022/02/20 08:00:20;;;;;;;4.40;1.47;;;6.20;99.90;6.10;99882.00;;;;4929390;28;111440;-64
2022/02/20 08:02:46;;;;;;;3.27;1.27;;;6.20;99.90;6.20;99868.00;;;;4932080;28;92985;-63
2022/02/20 08:05:12;;;;;;;1.33;0.90;;;6.70;99.90;6.20;99869.00;;;;4932339;28;92864;-64
2022/02/20 08:07:38;;;;;;;1.80;1.33;;;6.30;99.90;6.20;99884.00;;;;4931452;28;122858;-66
2022/02/20 08:10:06;;;;;;;0.70;0.70;;;6.30;99.90;6.30;99890.00;;;;4932717;28;92840;-66
2022/02/20 08:12:32;;;;;;;1.17;1.07;;;6.40;99.90;6.30;99891.00;;;;4927772;28;92976;-64
2022/02/20 08:14:58;;;;;;;0.67;0.60;;;6.40;99.90;6.40;99889.00;;;;4930048;28;92979;-63
2022/02/20 08:17:24;;;;;;;1.07;0.73;;;6.50;99.90;6.40;99890.00;;;;4931879;28;92274;-65
2022/02/20 08:19:50;;;;;;;3.27;0.97;;;6.50;99.90;6.50;99887.00;;;;4931072;28;92867;-65
2022/02/20 08:22:16;;;;;;;3.13;1.13;;;6.60;99.90;6.50;99901.00;;;;4930883;28;92859;-65
2022/02/20 08:24:43;;;;;;;0.83;0.73;;;6.60;99.90;6.60;99912.00;;;;4922630;28;107822;-66
2022/02/20 08:27:14;;;;;;;4.30;0.80;;;7.40;99.90;6.60;99903.00;;;;4924014;28;92983;-65
2022/02/20 08:29:41;;;;;;;0.97;0.97;;;6.70;99.90;6.70;99913.00;;;;4926299;28;104734;-65
2022/02/20 08:32:07;;;;;;;0.97;0.80;;;6.70;99.90;6.70;99907.00;;;;4928151;28;92935;-65
2022/02/20 08:34:34;;;;;;;0.80;0.70;;;6.80;99.90;6.70;99918.00;;;;4931317;28;99361;-64
2022/02/20 08:37:00;;;;;;;1.23;1.03;;;6.80;99.90;6.80;99919.00;;;;4931887;28;93576;-65
2022/02/20 08:39:28;;;;;;;0.77;0.77;;;6.80;99.90;6.80;99913.00;;;;4929496;28;110410;-64
2022/02/20 08:41:55;;;;;;;2.23;1.00;;;7.50;99.90;6.80;99916.00;;;;4932102;28;92125;-64
2022/02/20 08:44:22;;;;;;;3.30;1.30;;;6.90;99.90;6.90;99904.00;;;;4929144;28;92973;-63
2022/02/20 08:46:47;;;;;;;1.03;0.70;;;8.00;99.90;6.90;99920.00;;;;4931043;28;92991;-65
2022/02/20 08:49:13;;;;;;;1.07;0.90;;;7.00;99.90;7.00;99935.00;;;;4928842;28;106719;-64
2022/02/20 08:51:39;;;;;;;1.50;1.20;;;7.00;99.90;7.00;99941.00;;;;4911623;28;93638;-64
2022/02/20 08:54:05;;;;;;;3.60;1.43;;;7.60;99.90;7.00;99928.00;;;;4049677;28;10000994;-63
2022/02/20 08:56:31;;;;;;;1.00;0.87;;;7.10;99.90;7.00;99923.00;;;;4931545;28;93032;-65
2022/02/20 08:59:00;;;;;;;1.83;1.20;;;7.50;99.90;7.10;99928.00;;;;4931416;28;92855;-66
2022/02/20 09:01:27;;;;;;;1.27;1.17;;;7.20;99.90;7.10;99937.00;;;;4931068;28;95444;-65
2022/02/20 09:04:02;;;;;;;1.90;1.40;;;7.20;99.90;7.20;99937.00;;;;4931121;28;93147;-64
2022/02/20 09:06:31;;;;;;;0.93;0.90;;;7.30;99.90;7.30;99937.00;;;;4930990;28;92423;-65
2022/02/20 09:08:58;;;;;;;1.30;1.00;;;7.30;99.90;7.50;99944.00;;;;4930908;28;93230;-65
2022/02/20 09:11:25;;;;;;;1.90;0.90;;;7.50;99.90;7.60;99938.00;;;;4930113;28;94254;-64
2022/02/20 09:13:51;;;;;;;4.17;0.97;;;7.60;99.90;7.70;99934.00;;;;4920522;28;93893;-65
2022/02/20 09:16:17;;;;;;;2.60;1.20;;;8.20;99.90;7.80;99942.00;;;;4929873;28;105610;-65
2022/02/20 09:18:43;;;;;;;1.37;1.13;;;7.80;99.90;7.80;99927.00;;;;4930395;28;93074;-64
2022/02/20 09:21:09;;;;;;;4.70;1.33;;;7.90;99.90;7.90;99939.00;;;;4930331;28;102199;-64
2022/02/20 09:23:35;;;;;;;1.63;1.00;;;8.00;99.90;8.00;99952.00;;;;4929926;28;122293;-64
2022/02/20 09:26:01;;;;;;;2.33;1.53;;;8.10;99.90;8.10;99951.00;;;;4930955;28;92847;-64
2022/02/20 09:28:27;;;;;;;6.23;1.00;;;8.10;99.90;8.20;99950.00;;;;4929792;28;101561;-64
2022/02/20 09:30:53;;;;;;;1.37;1.13;;;8.20;99.90;8.30;99954.00;;;;4928786;28;93023;-65
2022/02/20 09:33:18;;;;;;;1.70;1.07;;;8.30;99.90;8.30;99935.00;;;;4928822;28;122918;-65
2022/02/20 09:35:44;;;;;;;3.87;1.00;;;8.40;99.90;8.40;99958.00;;;;4929703;28;109235;-65
2022/02/20 09:38:10;;;;;;;0.70;0.70;;;8.40;99.90;8.60;99961.00;;;;4929874;28;96304;-66
2022/02/20 09:40:35;;;;;;;1.33;0.90;;;8.60;99.90;8.80;99950.00;;;;4929451;28;122364;-64
2022/02/20 09:43:02;;;;;;;2.93;1.07;;;8.70;99.90;9.00;99951.00;;;;4929783;28;123443;-65
2022/02/20 09:45:28;;;;;;;2.20;0.90;;;9.00;99.90;9.20;99948.00;;;;4928557;28;93286;-64
2022/02/20 09:47:54;;;;;;;3.87;1.00;;;9.20;98.90;9.30;99953.00;;;;4929284;28;107908;-64
2022/02/20 09:50:19;;;;;;;1.23;0.60;;;9.30;98.20;9.50;99950.00;;;;4928076;28;122925;-65
2022/02/20 09:52:45;;;;;;;1.33;0.80;;;9.50;97.70;9.50;99953.00;;;;4928552;28;123204;-64
2022/02/20 09:55:11;;;;;;;1.63;1.03;;;9.60;97.30;9.50;99963.00;;;;4930018;28;110476;-65
2022/02/20 09:57:37;;;;;;;1.40;0.77;;;9.40;95.70;9.40;99955.00;;;;4930559;28;93133;-64
2022/02/20 10:00:08;;;;;;;1.33;0.87;;;9.40;95.70;9.30;99958.00;;;;4927426;28;116844;-65
2022/02/20 10:02:40;;;;;;;1.53;0.80;;;9.30;95.30;9.20;99953.00;;;;4929241;28;93968;-66
2022/02/20 10:05:08;;;;;;;2.20;0.60;;;9.30;94.60;9.20;99962.00;;;;4930982;28;92818;-66
2022/02/20 10:07:38;;;;;;;2.63;1.13;;;9.30;95.70;9.30;99965.00;;;;4929866;28;93030;-65
2022/02/20 10:10:18;;;;;;;4.40;1.00;;;9.30;96.30;9.20;99969.00;;;;4928251;28;93216;-65
2022/02/20 10:12:46;;;;;;;2.30;1.17;;;9.30;95.60;9.20;99975.00;;;;4920655;28;93554;-65
2022/02/20 10:15:31;;;;;;;1.00;0.93;;;9.30;92.30;9.10;99957.00;;;;4926703;28;92879;-65
2022/02/20 10:18:19;;;;;;;1.50;0.83;;;9.20;92.10;9.20;99964.00;;;;4929284;28;92892;-65
2022/02/20 10:20:47;;;;;;;3.10;0.97;;;9.20;93.00;9.30;99962.00;;;;4929876;28;92372;-65
2022/02/20 10:23:14;;;;;;;2.03;1.33;;;9.30;94.40;9.50;99965.00;;;;4926827;28;93017;-65
2022/02/20 10:25:42;;;;;;;1.53;1.00;;;9.50;95.10;9.70;99963.00;;;;4927548;28;104192;-64
2022/02/20 10:28:10;;;;;;;0.70;0.60;;;9.60;95.40;9.90;99949.00;;;;4926087;28;93726;-65
2022/02/20 10:30:36;;;;;;;1.00;1.00;;;9.80;95.20;10.00;99962.00;;;;4924281;28;93151;-64
2022/02/20 10:33:12;;;;;;;1.23;0.90;;;9.80;93.30;10.00;99956.00;;;;4931690;28;93829;-64
2022/02/20 10:35:53;;;;;;;0.73;0.73;;;10.00;91.80;10.00;99944.00;;;;4923653;28;92966;-64
2022/02/20 10:38:25;;;;;;;1.23;0.70;;;10.00;90.80;10.00;99957.00;;;;4929988;28;93742;-64
2022/02/20 10:40:56;;;;;;;1.17;1.07;;;10.00;90.30;10.00;99958.00;;;;4929676;28;93920;-64
2022/02/20 10:43:40;;;;;;;1.07;0.97;;;10.00;90.30;10.00;99942.00;;;;4929372;28;93676;-63
2022/02/20 10:46:11;;;;;;;1.13;0.83;;;10.00;90.90;10.00;99940.00;;;;4927499;28;92519;-64
2022/02/20 10:48:39;;;;;;;2.50;0.97;;;10.00;91.30;10.00;99933.00;;;;4937041;28;92893;-65
2022/02/20 10:51:05;;;;;;;3.27;1.20;;;10.00;91.30;10.00;99923.00;;;;4929067;28;93450;-64
2022/02/20 10:53:34;;;;;;;3.93;0.97;;;10.00;91.50;10.00;99926.00;;;;4928274;28;96579;-65
2022/02/20 10:56:00;;;;;;;1.73;1.30;;;10.10;91.90;10.00;99912.00;;;;4924090;28;93197;-65
2022/02/20 10:58:32;;;;;;;3.23;0.80;;;10.00;91.70;9.90;99937.00;;;;4925794;28;109489;-65
2022/02/20 11:01:05;;;;;;;1.17;1.07;;;10.00;92.10;9.80;99934.00;;;;4919678;28;95111;-65
2022/02/20 11:03:33;;;;;;;3.77;0.83;;;9.90;92.30;9.70;99943.00;;;;4928383;28;93665;-67